Time;durP1;ratioP1;P1;durP2;ratioP2;P2;SDS_P1;SDS_P2;PMS_P1;PMS_P2;Temp;Humidity;BMP_temperature;BMP_pressure;BME280_temperature;BME280_humidity;BME280_pressure;Samples;Min_cycle;Max_cycle;Signal;HPM_P1;HPM_P2
2021/07/21 00:01:03;;;;;;;5.30;4.60;;;;;;;;;;5067211;28;20186;-84
2021/07/21 00:03:29;;;;;;;5.73;4.30;;;;;;;;;;5053220;28;20177;-84
2021/07/21 00:05:55;;;;;;;5.30;4.80;;;;;;;;;;5053186;28;20285;-84
2021/07/21 00:08:21;;;;;;;8.17;5.03;;;;;;;;;;5071244;28;20170;-84
2021/07/21 00:10:49;;;;;;;5.30;4.57;;;;;;;;;;5053406;28;20173;-84
2021/07/21 00:13:28;;;;;;;5.20;4.50;;;;;;;;;;5053046;28;20697;-84
2021/07/21 00:16:17;;;;;;;5.57;4.93;;;;;;;;;;5071376;28;20160;-84
2021/07/21 00:21:10;;;;;;;5.77;4.33;;;;;;;;;;5075032;28;20617;-84
2021/07/21 00:23:38;;;;;;;5.73;4.50;;;;;;;;;;5075096;28;20178;-84
2021/07/21 00:26:04;;;;;;;4.67;4.10;;;;;;;;;;5057061;28;20573;-84
2021/07/21 00:28:30;;;;;;;5.90;5.03;;;;;;;;;;5075321;28;20650;-83
2021/07/21 00:30:56;;;;;;;8.43;5.07;;;;;;;;;;5056983;28;20643;-83
2021/07/21 00:33:23;;;;;;;6.37;4.80;;;;;;;;;;5056846;28;20214;-83
2021/07/21 00:35:50;;;;;;;4.90;4.30;;;;;;;;;;5056258;28;20599;-83
2021/07/21 00:38:16;;;;;;;4.77;4.27;;;;;;;;;;5056801;28;20576;-84
2021/07/21 00:40:42;;;;;;;5.30;4.80;;;;;;;;;;5056952;28;20176;-84
2021/07/21 00:43:08;;;;;;;5.83;4.33;;;;;;;;;;5056579;28;20641;-83
2021/07/21 00:45:35;;;;;;;5.20;4.70;;;;;;;;;;5056854;28;20200;-83
2021/07/21 00:48:01;;;;;;;5.63;4.50;;;;;;;;;;5074425;28;20621;-83
2021/07/21 00:50:27;;;;;;;5.00;4.47;;;;;;;;;;5056796;28;20524;-84
2021/07/21 00:52:54;;;;;;;6.57;4.90;;;;;;;;;;5056082;28;20263;-83
2021/07/21 00:55:20;;;;;;;7.63;5.63;;;;;;;;;;5055991;28;20274;-84
2021/07/21 00:57:46;;;;;;;5.73;4.13;;;;;;;;;;5056145;28;20176;-84
2021/07/21 01:00:17;;;;;;;4.87;4.30;;;;;;;;;;5056300;28;20685;-84
2021/07/21 01:02:44;;;;;;;5.50;4.50;;;;;;;;;;5056754;28;20730;-84
2021/07/21 01:05:12;;;;;;;9.60;5.03;;;;;;;;;;5056031;28;20180;-83
2021/07/21 01:07:43;;;;;;;6.30;4.30;;;;;;;;;;5089106;28;20212;-83
2021/07/21 01:10:11;;;;;;;5.17;4.67;;;;;;;;;;5056437;28;20172;-83
2021/07/21 01:12:41;;;;;;;8.37;4.97;;;;;;;;;;5055891;28;20703;-83
2021/07/21 01:15:12;;;;;;;5.00;4.47;;;;;;;;;;5073841;28;20175;-83
2021/07/21 01:17:52;;;;;;;5.57;4.47;;;;;;;;;;5055673;28;20540;-83
2021/07/21 01:20:30;;;;;;;4.43;4.00;;;;;;;;;;5055706;28;20195;-83
2021/07/21 01:23:05;;;;;;;5.07;4.57;;;;;;;;;;5055227;28;20183;-83
2021/07/21 01:25:36;;;;;;;5.60;4.57;;;;;;;;;;5073697;28;20202;-83
2021/07/21 01:28:02;;;;;;;5.07;4.57;;;;;;;;;;5055606;28;20165;-83
2021/07/21 01:30:31;;;;;;;4.13;3.40;;;;;;;;;;5054987;28;20180;-83
2021/07/21 01:33:00;;;;;;;5.27;4.40;;;;;;;;;;5073433;28;20685;-83
2021/07/21 01:35:28;;;;;;;5.33;4.33;;;;;;;;;;5073690;28;20302;-83
2021/07/21 01:37:59;;;;;;;5.03;4.47;;;;;;;;;;5054761;28;20648;-83
2021/07/21 01:40:41;;;;;;;5.43;4.43;;;;;;;;;;5055235;28;20593;-83
2021/07/21 01:43:08;;;;;;;4.73;4.33;;;;;;;;;;5073316;28;20163;-84
2021/07/21 01:45:34;;;;;;;5.20;4.40;;;;;;;;;;5088727;28;20222;-83
2021/07/21 01:48:01;;;;;;;4.13;3.73;;;;;;;;;;5055123;28;20172;-83
2021/07/21 01:50:29;;;;;;;5.07;4.57;;;;;;;;;;5055215;28;20169;-83
2021/07/21 01:52:55;;;;;;;4.73;4.27;;;;;;;;;;5054407;28;20173;-83
2021/07/21 01:55:23;;;;;;;5.57;4.47;;;;;;;;;;5073301;28;20240;-83
2021/07/21 01:57:50;;;;;;;5.10;4.43;;;;;;;;;;5054702;28;20176;-83
2021/07/21 02:00:17;;;;;;;4.47;4.07;;;;;;;;;;5054702;28;20172;-83
2021/07/21 02:02:45;;;;;;;7.20;4.87;;;;;;;;;;5088443;28;20200;-83
2021/07/21 02:05:11;;;;;;;5.63;4.83;;;;;;;;;;5054968;28;20581;-83
2021/07/21 02:07:41;;;;;;;4.73;4.27;;;;;;;;;;5054040;28;20200;-83
2021/07/21 02:10:08;;;;;;;4.57;4.17;;;;;;;;;;5054755;28;20184;-83
2021/07/21 02:12:37;;;;;;;5.03;4.53;;;;;;;;;;5072704;28;20177;-83
2021/07/21 02:15:03;;;;;;;6.03;4.30;;;;;;;;;;5088109;28;20176;-83
2021/07/21 02:17:29;;;;;;;5.03;4.17;;;;;;;;;;5054505;28;20655;-83
2021/07/21 02:19:55;;;;;;;5.07;4.57;;;;;;;;;;5054782;28;20230;-83
2021/07/21 02:22:22;;;;;;;5.43;4.43;;;;;;;;;;5054354;28;20689;-84
2021/07/21 02:24:48;;;;;;;4.43;3.90;;;;;;;;;;5072647;28;20181;-83
2021/07/21 02:27:15;;;;;;;5.57;4.40;;;;;;;;;;5072509;28;20196;-83
2021/07/21 02:29:42;;;;;;;6.17;5.13;;;;;;;;;;5054592;28;20183;-83
2021/07/21 02:32:13;;;;;;;4.70;4.20;;;;;;;;;;5054138;28;20272;-84
2021/07/21 02:34:39;;;;;;;6.47;4.27;;;;;;;;;;5054694;28;20243;-84
2021/07/21 02:37:05;;;;;;;4.80;3.80;;;;;;;;;;5053844;28;20195;-84
2021/07/21 02:39:31;;;;;;;4.80;4.17;;;;;;;;;;5072030;28;20505;-83
2021/07/21 02:41:57;;;;;;;5.20;4.70;;;;;;;;;;5052359;28;20966;-83
2021/07/21 02:44:23;;;;;;;4.63;4.23;;;;;;;;;;5072240;28;20173;-83
2021/07/21 02:46:50;;;;;;;4.63;4.13;;;;;;;;;;5054351;28;20257;-83
2021/07/21 02:49:19;;;;;;;5.10;4.30;;;;;;;;;;5087725;28;20172;-83
2021/07/21 02:51:45;;;;;;;4.67;4.27;;;;;;;;;;5053801;28;20172;-83
2021/07/21 02:54:37;;;;;;;5.00;4.47;;;;;;;;;;5072367;28;20706;-83
2021/07/21 02:57:09;;;;;;;5.60;4.37;;;;;;;;;;5051843;28;20234;-83
2021/07/21 02:59:43;;;;;;;6.47;4.50;;;;;;;;;;5053921;28;20252;-83
2021/07/21 03:02:09;;;;;;;5.27;4.47;;;;;;;;;;5053813;28;20187;-83
2021/07/21 03:04:37;;;;;;;4.87;4.47;;;;;;;;;;5054131;28;20187;-83
2021/07/21 03:07:04;;;;;;;4.90;4.40;;;;;;;;;;5053326;28;20208;-83
2021/07/21 03:09:30;;;;;;;4.80;4.30;;;;;;;;;;5053508;28;20263;-83
2021/07/21 03:11:58;;;;;;;5.23;4.70;;;;;;;;;;5053514;28;20182;-83
2021/07/21 03:14:25;;;;;;;5.00;4.47;;;;;;;;;;5071562;28;20515;-83
2021/07/21 03:16:52;;;;;;;5.37;4.57;;;;;;;;;;5071194;28;20264;-82
2021/07/21 03:19:19;;;;;;;6.03;4.60;;;;;;;;;;5072152;28;20603;-81
2021/07/21 03:21:45;;;;;;;4.00;3.60;;;;;;;;;;5052809;28;20180;-82
2021/07/21 03:24:12;;;;;;;4.10;3.77;;;;;;;;;;5071760;28;20184;-81
2021/07/21 03:26:38;;;;;;;5.47;4.20;;;;;;;;;;5071504;28;20334;-81
2021/07/21 03:29:05;;;;;;;4.43;4.03;;;;;;;;;;5053290;28;20172;-81
2021/07/21 03:31:31;;;;;;;4.67;4.17;;;;;;;;;;5053358;28;20628;-81
2021/07/21 03:34:03;;;;;;;5.13;3.93;;;;;;;;;;5071682;28;20176;-81
2021/07/21 03:36:30;;;;;;;6.47;4.23;;;;;;;;;;5070919;28;20172;-82
2021/07/21 03:38:58;;;;;;;5.60;4.53;;;;;;;;;;5053393;28;20184;-81
2021/07/21 03:41:25;;;;;;;5.03;4.53;;;;;;;;;;5071068;28;20176;-81
2021/07/21 03:43:51;;;;;;;5.63;4.87;;;;;;;;;;5053163;28;20180;-81
2021/07/21 03:46:18;;;;;;;4.70;4.30;;;;;;;;;;5053197;28;20203;-81
2021/07/21 03:48:45;;;;;;;4.93;4.43;;;;;;;;;;5053202;28;20180;-81
2021/07/21 03:51:12;;;;;;;5.30;4.50;;;;;;;;;;5070698;28;20177;-81
2021/07/21 03:53:39;;;;;;;5.20;4.70;;;;;;;;;;5053089;28;20180;-81
2021/07/21 03:56:05;;;;;;;5.23;4.73;;;;;;;;;;5053462;28;20318;-81
2021/07/21 03:58:31;;;;;;;6.23;4.77;;;;;;;;;;5071318;28;20627;-81
2021/07/21 04:00:58;;;;;;;4.33;3.93;;;;;;;;;;5052913;28;20654;-81
2021/07/21 04:03:24;;;;;;;4.60;4.20;;;;;;;;;;5053358;28;20596;-81
2021/07/21 04:05:52;;;;;;;5.37;4.87;;;;;;;;;;5052917;28;20716;-81
2021/07/21 04:08:19;;;;;;;5.10;4.60;;;;;;;;;;5053008;28;20176;-81
2021/07/21 04:10:45;;;;;;;5.00;4.50;;;;;;;;;;5053089;28;20642;-80
2021/07/21 04:13:12;;;;;;;4.87;4.30;;;;;;;;;;5052868;28;20191;-81
2021/07/21 04:15:38;;;;;;;4.33;3.93;;;;;;;;;;5053212;28;20569;-80
2021/07/21 04:18:04;;;;;;;5.87;4.60;;;;;;;;;;5053351;28;20208;-80
2021/07/21 04:20:30;;;;;;;6.70;4.30;;;;;;;;;;5071033;28;20177;-80
2021/07/21 04:22:57;;;;;;;6.27;5.10;;;;;;;;;;5052598;28;20306;-80
2021/07/21 04:25:23;;;;;;;4.70;4.20;;;;;;;;;;5053063;28;20690;-81
2021/07/21 04:27:50;;;;;;;5.10;4.27;;;;;;;;;;5070802;28;20169;-81
2021/07/21 04:30:16;;;;;;;4.77;4.03;;;;;;;;;;5053440;28;20173;-80
2021/07/21 04:32:42;;;;;;;5.13;3.97;;;;;;;;;;5052906;28;20172;-80
2021/07/21 04:35:15;;;;;;;5.13;4.10;;;;;;;;;;5052909;28;20176;-81
2021/07/21 04:37:42;;;;;;;6.33;4.50;;;;;;;;;;5070374;28;20153;-81
2021/07/21 04:40:10;;;;;;;4.93;4.30;;;;;;;;;;5052577;28;20180;-81
2021/07/21 04:42:36;;;;;;;5.47;4.20;;;;;;;;;;5052872;28;20180;-80
2021/07/21 04:45:02;;;;;;;5.10;4.23;;;;;;;;;;5052761;28;20225;-81
2021/07/21 04:47:28;;;;;;;5.90;5.00;;;;;;;;;;5051816;28;20551;-81
2021/07/21 04:49:55;;;;;;;5.10;4.60;;;;;;;;;;5053207;28;20181;-81
2021/07/21 04:52:24;;;;;;;4.37;3.90;;;;;;;;;;5052195;28;20177;-81
2021/07/21 04:54:50;;;;;;;4.27;3.87;;;;;;;;;;5052520;28;20216;-81
2021/07/21 04:57:18;;;;;;;4.70;4.07;;;;;;;;;;5052250;28;20172;-81
2021/07/21 04:59:44;;;;;;;4.73;4.20;;;;;;;;;;5052757;28;20176;-81
2021/07/21 05:02:10;;;;;;;5.10;4.30;;;;;;;;;;5070712;28;20581;-81
2021/07/21 05:04:36;;;;;;;4.57;4.00;;;;;;;;;;5054006;28;20700;-81
2021/07/21 05:07:03;;;;;;;5.35;4.82;;;;;;;;;;5054934;28;20422;-81
2021/07/21 05:09:29;;;;;;;4.83;4.40;;;;;;;;;;5056292;28;20184;-82
2021/07/21 05:11:55;;;;;;;4.57;4.17;;;;;;;;;;5055938;28;20176;-82
2021/07/21 05:14:21;;;;;;;3.80;3.50;;;;;;;;;;5055968;28;20201;-82
2021/07/21 05:16:47;;;;;;;4.47;4.03;;;;;;;;;;5055772;28;20628;-81
2021/07/21 05:19:13;;;;;;;4.63;4.23;;;;;;;;;;5055868;28;20180;-81
2021/07/21 05:21:39;;;;;;;4.87;4.07;;;;;;;;;;5055773;28;20223;-81
2021/07/21 05:24:06;;;;;;;4.23;3.93;;;;;;;;;;5056228;28;20181;-81
2021/07/21 05:26:32;;;;;;;4.93;4.40;;;;;;;;;;5055867;28;20204;-81
2021/07/21 05:28:58;;;;;;;4.17;3.60;;;;;;;;;;5056291;28;20283;-81
2021/07/21 05:31:26;;;;;;;5.57;4.10;;;;;;;;;;5055774;28;20172;-81
2021/07/21 05:33:52;;;;;;;4.70;4.10;;;;;;;;;;5056134;28;20177;-81
2021/07/21 05:36:21;;;;;;;5.40;4.77;;;;;;;;;;5073506;28;20172;-81
2021/07/21 05:38:47;;;;;;;5.10;4.60;;;;;;;;;;5073342;28;20188;-81
2021/07/21 05:41:13;;;;;;;4.77;4.13;;;;;;;;;;5073494;28;20275;-81
2021/07/21 05:43:39;;;;;;;6.00;3.97;;;;;;;;;;5073079;28;20276;-81
2021/07/21 05:46:05;;;;;;;5.17;4.47;;;;;;;;;;5055255;28;20260;-80
2021/07/21 05:48:31;;;;;;;5.07;4.33;;;;;;;;;;5055318;28;20627;-81
2021/07/21 05:50:58;;;;;;;5.60;4.50;;;;;;;;;;5055298;28;20176;-81
2021/07/21 05:53:24;;;;;;;6.27;4.57;;;;;;;;;;5055285;28;20177;-81
2021/07/21 05:55:49;;;;;;;7.80;4.07;;;;;;;;;;5073344;28;20216;-81
2021/07/21 05:58:17;;;;;;;4.40;3.83;;;;;;;;;;5040264;28;20295;-79
2021/07/21 06:00:43;;;;;;;6.33;4.67;;;;;;;;;;5057293;28;20188;-78
2021/07/21 06:03:09;;;;;;;4.90;4.17;;;;;;;;;;5056682;28;20666;-78
2021/07/21 06:05:38;;;;;;;6.27;4.57;;;;;;;;;;5057226;28;20199;-78
2021/07/21 06:08:04;;;;;;;4.53;4.13;;;;;;;;;;5075065;28;20192;-79
2021/07/21 06:10:30;;;;;;;5.37;4.60;;;;;;;;;;5057644;28;20263;-79
2021/07/21 06:12:56;;;;;;;4.27;3.50;;;;;;;;;;5074123;28;20202;-79
2021/07/21 06:15:27;;;;;;;4.70;4.20;;;;;;;;;;5056487;28;20226;-79
2021/07/21 06:17:53;;;;;;;5.57;5.07;;;;;;;;;;5057141;28;20530;-78
2021/07/21 06:20:19;;;;;;;5.60;4.30;;;;;;;;;;5075617;28;20556;-79
2021/07/21 06:22:45;;;;;;;4.60;4.20;;;;;;;;;;5075054;28;20175;-79
2021/07/21 06:25:12;;;;;;;4.63;4.17;;;;;;;;;;5075534;28;20174;-79
2021/07/21 06:27:38;;;;;;;4.43;3.80;;;;;;;;;;5074347;28;20671;-78
2021/07/21 06:30:06;;;;;;;6.00;3.63;;;;;;;;;;5057416;28;20180;-78
2021/07/21 06:32:33;;;;;;;5.17;4.67;;;;;;;;;;5057942;28;20184;-80
2021/07/21 06:34:59;;;;;;;5.63;4.13;;;;;;;;;;5056066;28;20537;-80
2021/07/21 06:37:25;;;;;;;4.63;3.77;;;;;;;;;;5055849;28;20176;-79
2021/07/21 06:39:52;;;;;;;7.60;4.17;;;;;;;;;;5054790;28;20639;-79
2021/07/21 06:42:18;;;;;;;4.17;3.63;;;;;;;;;;5055198;28;20546;-79
2021/07/21 06:44:44;;;;;;;4.53;3.77;;;;;;;;;;5072269;28;20188;-79
2021/07/21 06:47:10;;;;;;;4.13;3.70;;;;;;;;;;5072300;28;20200;-79
2021/07/21 06:49:36;;;;;;;5.40;4.20;;;;;;;;;;5053719;28;20173;-79
2021/07/21 06:52:02;;;;;;;4.20;3.77;;;;;;;;;;5071736;28;20172;-79
2021/07/21 06:54:28;;;;;;;6.37;4.33;;;;;;;;;;5053720;28;20173;-79
2021/07/21 06:56:54;;;;;;;4.87;3.53;;;;;;;;;;5072820;28;20173;-79
2021/07/21 06:59:20;;;;;;;4.80;3.73;;;;;;;;;;5054872;28;20234;-79
2021/07/21 07:01:46;;;;;;;5.40;4.20;;;;;;;;;;5058016;28;20172;-79
2021/07/21 07:04:12;;;;;;;5.43;4.40;;;;;;;;;;5075383;28;20629;-79
2021/07/21 07:06:38;;;;;;;4.13;3.73;;;;;;;;;;5073688;28;20203;-79
2021/07/21 07:09:04;;;;;;;6.87;3.77;;;;;;;;;;5073984;28;20194;-79
2021/07/21 07:11:30;;;;;;;4.87;4.23;;;;;;;;;;5055959;28;20208;-79
2021/07/21 07:13:57;;;;;;;4.80;4.03;;;;;;;;;;5056369;28;20173;-79
2021/07/21 07:16:23;;;;;;;4.33;3.93;;;;;;;;;;5056142;28;20221;-79
2021/07/21 07:18:49;;;;;;;4.83;3.63;;;;;;;;;;5073956;28;20187;-79
2021/07/21 07:21:15;;;;;;;4.43;4.03;;;;;;;;;;5073196;28;20168;-79
2021/07/21 07:23:41;;;;;;;6.07;3.60;;;;;;;;;;5056776;28;20229;-79
2021/07/21 07:26:07;;;;;;;4.40;4.00;;;;;;;;;;5055807;28;20211;-79
2021/07/21 07:28:33;;;;;;;4.73;4.33;;;;;;;;;;5051731;28;20208;-79
2021/07/21 07:30:59;;;;;;;4.07;3.67;;;;;;;;;;5035667;28;20295;-79
2021/07/21 07:33:25;;;;;;;5.30;4.10;;;;;;;;;;5035176;28;20377;-80
2021/07/21 07:35:51;;;;;;;4.65;4.10;;;;;;;;;;5033523;28;20412;-80
2021/07/21 07:38:17;;;;;;;3.87;3.50;;;;;;;;;;5034702;28;20185;-80
2021/07/21 07:40:44;;;;;;;4.97;3.73;;;;;;;;;;5035484;28;20181;-79
2021/07/21 07:43:11;;;;;;;4.80;3.30;;;;;;;;;;5035247;28;20688;-79
2021/07/21 07:45:37;;;;;;;4.17;3.77;;;;;;;;;;5052765;28;20181;-79
2021/07/21 07:48:04;;;;;;;3.73;3.37;;;;;;;;;;5053078;28;20201;-80
2021/07/21 07:50:30;;;;;;;5.03;3.50;;;;;;;;;;5035147;28;20628;-79
2021/07/21 07:52:56;;;;;;;4.90;3.90;;;;;;;;;;5052726;28;20187;-80
2021/07/21 07:55:22;;;;;;;4.83;3.97;;;;;;;;;;5034511;28;20664;-79
2021/07/21 07:57:48;;;;;;;5.50;4.63;;;;;;;;;;5053548;28;20184;-79
2021/07/21 08:00:15;;;;;;;6.33;5.60;;;;;;;;;;5054355;28;20170;-79
2021/07/21 08:02:41;;;;;;;5.03;4.53;;;;;;;;;;5053538;28;20173;-79
2021/07/21 08:05:08;;;;;;;4.70;4.10;;;;;;;;;;5035942;28;20637;-78
2021/07/21 08:07:35;;;;;;;5.50;4.27;;;;;;;;;;5034990;28;20216;-79
2021/07/21 08:10:02;;;;;;;6.27;4.20;;;;;;;;;;5034796;28;20181;-79
2021/07/21 08:12:28;;;;;;;6.03;4.23;;;;;;;;;;5035991;28;20181;-79
2021/07/21 08:14:54;;;;;;;8.63;4.83;;;;;;;;;;5036003;28;20576;-78
2021/07/21 08:17:20;;;;;;;5.50;4.60;;;;;;;;;;5053461;28;20640;-78
2021/07/21 08:19:46;;;;;;;5.23;4.13;;;;;;;;;;5067571;28;20180;-79
2021/07/21 08:22:13;;;;;;;6.47;4.77;;;;;;;;;;5055484;28;20175;-79
2021/07/21 08:24:39;;;;;;;5.27;4.17;;;;;;;;;;5054494;28;20263;-79
2021/07/21 08:27:05;;;;;;;4.87;4.33;;;;;;;;;;5054036;28;20200;-79
2021/07/21 08:29:31;;;;;;;7.03;4.23;;;;;;;;;;5055542;28;20181;-79
2021/07/21 08:31:57;;;;;;;5.73;4.33;;;;;;;;;;5073032;28;20613;-79
2021/07/21 08:34:23;;;;;;;6.57;4.57;;;;;;;;;;5054944;28;20631;-79
2021/07/21 08:36:49;;;;;;;5.07;4.40;;;;;;;;;;5054145;28;20639;-79
2021/07/21 08:39:15;;;;;;;7.97;4.43;;;;;;;;;;5055617;28;20186;-79
2021/07/21 08:41:42;;;;;;;12.00;4.93;;;;;;;;;;5059284;28;20184;-79
2021/07/21 08:44:08;;;;;;;5.93;4.37;;;;;;;;;;5058060;28;20179;-79
2021/07/21 08:46:37;;;;;;;6.57;4.63;;;;;;;;;;5058664;28;20204;-79
2021/07/21 08:49:07;;;;;;;6.10;5.27;;;;;;;;;;5059117;28;20181;-79
2021/07/21 08:51:33;;;;;;;7.23;5.30;;;;;;;;;;5057919;28;20168;-79
2021/07/21 08:54:00;;;;;;;5.30;4.60;;;;;;;;;;5058680;28;20177;-79
2021/07/21 08:56:26;;;;;;;8.40;5.00;;;;;;;;;;5058253;28;20224;-80
2021/07/21 08:58:52;;;;;;;6.07;4.90;;;;;;;;;;5077993;28;20730;-80
2021/07/21 09:01:19;;;;;;;5.37;4.83;;;;;;;;;;5077832;28;20177;-80
2021/07/21 09:03:45;;;;;;;8.10;5.23;;;;;;;;;;5059757;28;20181;-80
2021/07/21 09:06:14;;;;;;;6.77;4.50;;;;;;;;;;5058808;28;20201;-81
2021/07/21 09:08:41;;;;;;;8.33;4.90;;;;;;;;;;5058257;28;20547;-81
2021/07/21 09:11:07;;;;;;;6.00;4.57;;;;;;;;;;5058681;28;20178;-80
2021/07/21 09:13:36;;;;;;;7.27;4.80;;;;;;;;;;5059061;28;20190;-81
2021/07/21 09:16:06;;;;;;;6.77;4.83;;;;;;;;;;5058260;28;20189;-80
2021/07/21 09:18:46;;;;;;;6.40;5.17;;;;;;;;;;5058085;28;20239;-81
2021/07/21 09:21:15;;;;;;;4.93;4.37;;;;;;;;;;5057979;28;20173;-81
2021/07/21 09:23:42;;;;;;;7.17;5.30;;;;;;;;;;5058472;28;20194;-81
2021/07/21 09:26:08;;;;;;;6.57;4.90;;;;;;;;;;5058443;28;20601;-81
2021/07/21 09:28:38;;;;;;;6.57;4.83;;;;;;;;;;5058004;28;20183;-80
2021/07/21 09:31:05;;;;;;;5.37;4.43;;;;;;;;;;5058663;28;20534;-81
2021/07/21 09:33:31;;;;;;;4.47;3.97;;;;;;;;;;5092423;28;20180;-81
2021/07/21 09:35:57;;;;;;;6.60;4.43;;;;;;;;;;5057739;28;20183;-81
2021/07/21 09:38:25;;;;;;;5.60;5.07;;;;;;;;;;5058544;28;20180;-81
2021/07/21 09:40:53;;;;;;;5.77;4.53;;;;;;;;;;5059589;28;20214;-81
2021/07/21 09:43:20;;;;;;;5.20;4.70;;;;;;;;;;5059734;28;20276;-81
2021/07/21 09:45:47;;;;;;;5.70;4.80;;;;;;;;;;5059162;28;20173;-81
2021/07/21 09:48:14;;;;;;;6.37;4.70;;;;;;;;;;5059493;28;20197;-81
2021/07/21 09:50:44;;;;;;;6.20;4.93;;;;;;;;;;5058091;28;20267;-81
2021/07/21 09:53:12;;;;;;;4.63;4.20;;;;;;;;;;5058892;28;20241;-81
2021/07/21 09:55:39;;;;;;;6.47;4.80;;;;;;;;;;5058657;28;20220;-81
2021/07/21 09:58:07;;;;;;;6.93;5.50;;;;;;;;;;5058983;28;20494;-81
2021/07/21 10:00:40;;;;;;;5.90;5.03;;;;;;;;;;5078035;28;20164;-81
2021/07/21 10:03:08;;;;;;;5.20;4.67;;;;;;;;;;5059524;28;20180;-81
2021/07/21 10:05:34;;;;;;;6.30;4.90;;;;;;;;;;5059126;28;20225;-81
2021/07/21 10:08:03;;;;;;;6.47;4.97;;;;;;;;;;5058981;28;20209;-81
2021/07/21 10:10:30;;;;;;;6.77;5.50;;;;;;;;;;5076861;28;20172;-81
2021/07/21 10:13:13;;;;;;;4.57;4.17;;;;;;;;;;5059519;28;20295;-81
2021/07/21 10:15:39;;;;;;;6.10;5.07;;;;;;;;;;5077260;28;20153;-81
2021/07/21 10:18:07;;;;;;;6.70;5.37;;;;;;;;;;5059146;28;20198;-81
2021/07/21 10:20:33;;;;;;;6.10;4.50;;;;;;;;;;5059827;28;20196;-81
2021/07/21 10:22:59;;;;;;;5.83;4.80;;;;;;;;;;5058661;28;20191;-81
2021/07/21 10:25:26;;;;;;;6.77;4.97;;;;;;;;;;5077301;28;20169;-81
2021/07/21 10:27:53;;;;;;;7.03;5.30;;;;;;;;;;5059016;28;20200;-81
2021/07/21 10:30:20;;;;;;;5.03;4.57;;;;;;;;;;5076028;28;20223;-80
2021/07/21 10:32:49;;;;;;;5.50;4.83;;;;;;;;;;5062356;28;20172;-81
2021/07/21 10:35:15;;;;;;;7.73;5.40;;;;;;;;;;5083444;28;20228;-81
2021/07/21 10:37:42;;;;;;;6.87;5.70;;;;;;;;;;5061339;28;20173;-80
2021/07/21 10:40:15;;;;;;;6.93;5.57;;;;;;;;;;5063388;28;20204;-82
2021/07/21 10:42:47;;;;;;;6.87;5.60;;;;;;;;;;5064161;28;20183;-80
2021/07/21 10:45:17;;;;;;;6.37;5.30;;;;;;;;;;5058927;28;20181;-81
2021/07/21 10:47:47;;;;;;;7.10;6.17;;;;;;;;;;5058095;28;20200;-81
2021/07/21 10:50:27;;;;;;;5.77;4.77;;;;;;;;;;5058621;28;20204;-81
2021/07/21 10:53:14;;;;;;;8.07;5.20;;;;;;;;;;5075095;28;20225;-80
2021/07/21 10:55:46;;;;;;;6.07;5.37;;;;;;;;;;5057931;28;20230;-81
2021/07/21 11:00:57;;;;;;;6.20;5.37;;;;;;;;;;5075809;28;20568;-81
2021/07/21 11:03:31;;;;;;;6.57;5.67;;;;;;;;;;5056163;28;20172;-80
2021/07/21 11:06:02;;;;;;;8.13;5.43;;;;;;;;;;5055799;28;20226;-81
2021/07/21 11:08:29;;;;;;;7.37;5.67;;;;;;;;;;5059090;28;20268;-81
2021/07/21 11:10:56;;;;;;;15.27;5.97;;;;;;;;;;5058426;28;20250;-81
2021/07/21 11:13:29;;;;;;;6.63;5.73;;;;;;;;;;5057900;28;20173;-80
2021/07/21 11:15:56;;;;;;;7.10;5.77;;;;;;;;;;5075645;28;20681;-81
2021/07/21 11:18:22;;;;;;;6.60;5.97;;;;;;;;;;5057955;28;20514;-80
2021/07/21 11:21:07;;;;;;;14.00;6.30;;;;;;;;;;5057369;28;20176;-80
2021/07/21 11:23:58;;;;;;;7.47;5.73;;;;;;;;;;5057859;28;20173;-80
2021/07/21 11:26:28;;;;;;;6.53;5.83;;;;;;;;;;5075441;28;20285;-81
2021/07/21 11:28:55;;;;;;;6.50;5.87;;;;;;;;;;5057864;28;20173;-80
2021/07/21 11:31:40;;;;;;;6.13;5.53;;;;;;;;;;5057537;28;20184;-80
2021/07/21 11:34:12;;;;;;;7.40;5.80;;;;;;;;;;5064226;28;20176;-80
2021/07/21 11:36:43;;;;;;;6.20;5.60;;;;;;;;;;5088485;28;20180;-80
2021/07/21 11:39:10;;;;;;;7.87;6.10;;;;;;;;;;5071874;28;20172;-81
2021/07/21 11:41:47;;;;;;;8.93;6.00;;;;;;;;;;5072407;28;20184;-81
2021/07/21 11:44:20;;;;;;;6.90;5.57;;;;;;;;;;5092353;28;20195;-81
2021/07/21 11:46:46;;;;;;;7.23;6.47;;;;;;;;;;5074279;28;20188;-81
2021/07/21 11:49:12;;;;;;;7.23;6.23;;;;;;;;;;5074053;28;20161;-80
2021/07/21 11:51:39;;;;;;;7.90;5.83;;;;;;;;;;5074116;28;20199;-80
2021/07/21 11:54:06;;;;;;;7.10;6.37;;;;;;;;;;5076099;28;20177;-80
2021/07/21 11:56:32;;;;;;;6.43;5.83;;;;;;;;;;5072974;28;20235;-82
2021/07/21 11:59:05;;;;;;;7.60;6.17;;;;;;;;;;5068137;28;20173;-82
2021/07/21 12:01:31;;;;;;;10.93;6.93;;;;;;;;;;5067385;28;20226;-82
2021/07/21 12:03:57;;;;;;;8.10;6.30;;;;;;;;;;5067012;28;20180;-82
2021/07/21 12:06:24;;;;;;;7.10;5.87;;;;;;;;;;5065088;28;20239;-82
2021/07/21 12:08:52;;;;;;;7.50;6.53;;;;;;;;;;5065700;28;20188;-82
2021/07/21 12:11:18;;;;;;;7.17;5.93;;;;;;;;;;5064973;28;20204;-82
2021/07/21 12:13:44;;;;;;;6.10;5.20;;;;;;;;;;5066306;28;20172;-82
2021/07/21 12:16:11;;;;;;;9.53;6.27;;;;;;;;;;5068046;28;20669;-82
2021/07/21 12:18:37;;;;;;;7.60;6.17;;;;;;;;;;5067773;28;20206;-82
2021/07/21 12:21:08;;;;;;;7.95;6.35;;;;;;;;;;5065923;28;20885;-82
2021/07/21 12:23:34;;;;;;;8.63;6.63;;;;;;;;;;5065722;28;20182;-82
2021/07/21 12:26:09;;;;;;;6.53;5.63;;;;;;;;;;5066674;28;20833;-82
2021/07/21 12:28:35;;;;;;;6.43;5.40;;;;;;;;;;5084621;28;20168;-82
2021/07/21 12:31:01;;;;;;;10.47;6.30;;;;;;;;;;5065767;28;20170;-82
2021/07/21 12:33:27;;;;;;;8.40;6.47;;;;;;;;;;5065196;28;20176;-82
2021/07/21 12:35:53;;;;;;;7.80;6.30;;;;;;;;;;5065978;28;20532;-82
2021/07/21 12:38:20;;;;;;;7.87;6.40;;;;;;;;;;5065953;28;20187;-82
2021/07/21 12:40:46;;;;;;;8.67;5.87;;;;;;;;;;5065242;28;20169;-82
2021/07/21 12:43:14;;;;;;;8.77;6.37;;;;;;;;;;5064016;28;20173;-82
2021/07/21 12:45:40;;;;;;;7.03;5.67;;;;;;;;;;5064602;28;20172;-82
2021/07/21 12:48:06;;;;;;;7.33;6.50;;;;;;;;;;5064094;28;20184;-82
2021/07/21 12:50:36;;;;;;;8.57;7.67;;;;;;;;;;5064240;28;20243;-83
2021/07/21 12:53:05;;;;;;;12.30;7.83;;;;;;;;;;5062840;28;20176;-83
2021/07/21 12:55:34;;;;;;;8.37;7.10;;;;;;;;;;5062906;28;20235;-83
2021/07/21 12:58:03;;;;;;;9.27;7.53;;;;;;;;;;5061753;28;20263;-82
2021/07/21 13:00:29;;;;;;;9.97;7.97;;;;;;;;;;5079457;28;20188;-81
2021/07/21 13:03:12;;;;;;;8.47;7.67;;;;;;;;;;5059121;28;20179;-81
2021/07/21 13:05:38;;;;;;;9.73;7.70;;;;;;;;;;5077899;28;20691;-82
2021/07/21 13:08:05;;;;;;;9.17;8.17;;;;;;;;;;5078156;28;20200;-82
2021/07/21 13:10:32;;;;;;;9.53;8.40;;;;;;;;;;5061537;28;20610;-82
2021/07/21 13:12:59;;;;;;;10.23;8.90;;;;;;;;;;5061915;28;20177;-82
2021/07/21 13:15:25;;;;;;;12.97;9.77;;;;;;;;;;5061225;28;20508;-82
2021/07/21 13:17:59;;;;;;;13.10;10.47;;;;;;;;;;5060514;28;20632;-82
2021/07/21 13:20:30;;;;;;;11.17;9.97;;;;;;;;;;5061045;28;20184;-82
2021/07/21 13:23:14;;;;;;;11.20;10.10;;;;;;;;;;5076897;28;20248;-82
2021/07/21 13:25:40;;;;;;;10.90;9.77;;;;;;;;;;5058232;28;20184;-83
2021/07/21 13:28:23;;;;;;;12.97;9.10;;;;;;;;;;5059877;28;20216;-83
2021/07/21 13:30:49;;;;;;;11.60;10.40;;;;;;;;;;5077777;28;20173;-82
2021/07/21 13:33:15;;;;;;;11.70;10.50;;;;;;;;;;5059842;28;20586;-83
2021/07/21 13:35:41;;;;;;;12.13;9.33;;;;;;;;;;5059287;28;20536;-82
2021/07/21 13:38:07;;;;;;;10.53;9.43;;;;;;;;;;5059178;28;20180;-82
2021/07/21 13:40:33;;;;;;;10.43;9.40;;;;;;;;;;5059238;28;20184;-83
2021/07/21 13:43:04;;;;;;;9.07;8.10;;;;;;;;;;5076786;28;20173;-84
2021/07/21 13:45:30;;;;;;;10.80;7.63;;;;;;;;;;5058540;28;20182;-83
2021/07/21 13:47:59;;;;;;;7.50;6.80;;;;;;;;;;5076389;28;20555;-81
2021/07/21 13:50:26;;;;;;;9.00;7.27;;;;;;;;;;5058901;28;20271;-81
2021/07/21 13:53:02;;;;;;;15.30;9.37;;;;;;;;;;5058307;28;20217;-81
2021/07/21 13:55:28;;;;;;;12.32;9.07;;;;;;;;;;5076202;28;20442;-82
2021/07/21 13:57:54;;;;;;;10.13;9.03;;;;;;;;;;5059104;28;20246;-82
2021/07/21 14:00:22;;;;;;;10.27;8.17;;;;;;;;;;5059303;28;20172;-82
2021/07/21 14:02:48;;;;;;;8.93;7.93;;;;;;;;;;5059396;28;20181;-82
2021/07/21 14:05:14;;;;;;;8.63;7.77;;;;;;;;;;5059083;28;20176;-83
2021/07/21 14:07:40;;;;;;;8.97;8.07;;;;;;;;;;5058916;28;20208;-84
2021/07/21 14:10:06;;;;;;;8.90;7.87;;;;;;;;;;5059597;28;20185;-84
2021/07/21 14:12:32;;;;;;;11.67;9.70;;;;;;;;;;5059167;28;20582;-84
2021/07/21 14:14:58;;;;;;;14.60;8.53;;;;;;;;;;5059712;28;20179;-84
2021/07/21 14:17:24;;;;;;;18.80;10.30;;;;;;;;;;5059415;28;20193;-84
2021/07/21 14:19:50;;;;;;;10.40;8.73;;;;;;;;;;5058682;28;20186;-86
2021/07/21 14:22:16;;;;;;;10.77;8.13;;;;;;;;;;5058303;28;20268;-85
2021/07/21 14:24:42;;;;;;;9.60;8.30;;;;;;;;;;5059202;28;20187;-85
2021/07/21 14:27:08;;;;;;;9.33;7.50;;;;;;;;;;5057955;28;20213;-85
2021/07/21 14:29:34;;;;;;;10.90;8.47;;;;;;;;;;5058646;28;20187;-85
2021/07/21 14:32:00;;;;;;;8.70;7.90;;;;;;;;;;5058510;28;20176;-85
2021/07/21 14:34:26;;;;;;;9.23;8.33;;;;;;;;;;5059255;28;20170;-85
2021/07/21 14:36:53;;;;;;;12.13;8.17;;;;;;;;;;5057914;28;20214;-85
2021/07/21 14:39:20;;;;;;;9.63;7.83;;;;;;;;;;5058554;28;20635;-85
2021/07/21 14:41:50;;;;;;;9.10;7.95;;;;;;;;;;5058785;28;20418;-85
2021/07/21 14:44:16;;;;;;;8.97;8.10;;;;;;;;;;5058383;28;20180;-85
2021/07/21 14:46:43;;;;;;;8.80;7.53;;;;;;;;;;5076113;28;20220;-85
2021/07/21 14:49:13;;;;;;;10.40;7.27;;;;;;;;;;5057829;28;20203;-85